Time;durP1;ratioP1;P1;durP2;ratioP2;P2;SDS_P1;SDS_P2;PMS_P1;PMS_P2;Temp;Humidity;BMP_temperature;BMP_pressure;BME280_temperature;BME280_humidity;BME280_pressure;Samples;Min_cycle;Max_cycle;Signal;HPM_P1;HPM_P2
2023/06/08 00:01:42;;;;;;;47.60;6.63;;;;;;;18.04;50.27;100142.25;5010221;28;20322;-77
2023/06/08 00:04:09;;;;;;;14.07;5.75;;;;;;;17.99;50.27;100142.66;5010357;28;20054;-77
2023/06/08 00:06:37;;;;;;;13.88;5.60;;;;;;;17.93;50.33;100141.31;5008450;28;20419;-77
2023/06/08 00:09:06;;;;;;;17.17;5.45;;;;;;;17.89;50.46;100137.22;5010351;28;20104;-77
2023/06/08 00:11:33;;;;;;;11.57;5.28;;;;;;;17.85;50.53;100138.44;5012556;28;20050;-77
2023/06/08 00:14:00;;;;;;;10.70;5.35;;;;;;;17.79;50.65;100137.13;5013651;28;20053;-77
2023/06/08 00:16:27;;;;;;;11.43;5.07;;;;;;;17.74;50.67;100147.31;5013604;28;20165;-77
2023/06/08 00:19:00;;;;;;;15.68;5.90;;;;;;;17.70;50.78;100138.75;5013676;28;20057;-77
2023/06/08 00:21:29;;;;;;;12.40;5.28;;;;;;;17.68;50.89;100142.50;5013702;28;20046;-77
2023/06/08 00:23:55;;;;;;;12.88;5.38;;;;;;;17.65;50.89;100140.06;5012973;28;20064;-78
2023/06/08 00:26:22;;;;;;;11.40;4.68;;;;;;;17.63;51.01;100142.00;5012854;28;20097;-77
2023/06/08 00:28:49;;;;;;;12.82;5.40;;;;;;;17.60;51.33;100140.44;5011740;28;20054;-77
2023/06/08 00:31:16;;;;;;;16.67;5.47;;;;;;;17.57;51.34;100149.50;5013439;28;20081;-77
2023/06/08 00:33:42;;;;;;;15.10;6.55;;;;;;;17.56;51.36;100141.66;5012962;28;20050;-77
2023/06/08 00:36:09;;;;;;;13.23;5.13;;;;;;;17.54;51.20;100148.94;5012890;28;20065;-77
2023/06/08 00:38:36;;;;;;;13.38;5.53;;;;;;;17.52;51.37;100148.19;5013042;28;20436;-77
2023/06/08 00:41:02;;;;;;;16.52;5.22;;;;;;;17.51;51.40;100147.34;5013136;28;20046;-77
2023/06/08 00:43:29;;;;;;;13.40;5.65;;;;;;;17.48;51.64;100141.41;5013161;28;20105;-77
2023/06/08 00:45:56;;;;;;;14.73;5.93;;;;;;;17.44;51.67;100135.50;5013066;28;20050;-78
2023/06/08 00:48:25;;;;;;;14.10;5.60;;;;;;;17.40;51.76;100142.91;5012783;28;20100;-78
2023/06/08 00:50:53;;;;;;;15.77;6.10;;;;;;;17.36;51.76;100141.44;5011846;28;20060;-77
2023/06/08 00:53:20;;;;;;;14.32;5.45;;;;;;;17.32;51.91;100142.66;5012815;28;20053;-78
2023/06/08 00:55:50;;;;;;;12.48;6.25;;;;;;;17.27;51.95;100145.66;5012385;28;20054;-77
2023/06/08 00:58:18;;;;;;;13.82;6.05;;;;;;;17.24;52.10;100143.28;5011689;28;20053;-78
2023/06/08 01:00:46;;;;;;;14.30;6.07;;;;;;;17.22;52.45;100147.84;5012704;28;20534;-77
2023/06/08 01:03:16;;;;;;;14.10;5.88;;;;;;;17.19;52.46;100132.13;5013406;28;20713;-77
2023/06/08 01:05:45;;;;;;;16.63;6.30;;;;;;;17.18;52.25;100141.06;5011789;28;20053;-78
2023/06/08 01:08:42;;;;;;;13.07;6.05;;;;;;;17.09;52.95;100139.16;5011142;28;20377;-77
2023/06/08 01:11:27;;;;;;;15.10;5.32;;;;;;;17.10;52.47;100143.50;5012526;28;20056;-77
2023/06/08 01:14:13;;;;;;;11.07;5.18;;;;;;;17.03;52.86;100135.97;5012667;28;20058;-77
2023/06/08 01:16:49;;;;;;;13.75;6.57;;;;;;;17.01;53.00;100129.91;4992797;28;20058;-78
2023/06/08 01:19:42;;;;;;;14.70;6.38;;;;;;;16.99;53.13;100133.66;4993160;28;20148;-77
2023/06/08 01:22:46;;;;;;;17.00;6.60;;;;;;;16.94;53.13;100136.72;5001889;28;20137;-77
2023/06/08 01:25:16;;;;;;;14.98;5.55;;;;;;;16.96;52.55;100131.28;5003706;28;20092;-77
2023/06/08 01:27:44;;;;;;;16.13;6.35;;;;;;;16.91;52.53;100131.63;5012930;28;20042;-77
2023/06/08 01:30:10;;;;;;;18.70;6.85;;;;;;;16.86;52.74;100139.94;5012495;28;20057;-78
2023/06/08 01:32:37;;;;;;;19.88;6.80;;;;;;;16.83;52.78;100142.00;5012066;28;20060;-77
2023/06/08 01:35:04;;;;;;;13.60;6.43;;;;;;;16.78;53.03;100134.38;5011973;28;20049;-77
2023/06/08 01:37:36;;;;;;;12.27;6.07;;;;;;;16.74;53.39;100143.56;5011927;28;20416;-77
2023/06/08 01:40:24;;;;;;;13.87;6.50;;;;;;;16.68;53.61;100137.75;5012271;28;20050;-77
2023/06/08 01:42:53;;;;;;;22.23;7.05;;;;;;;16.67;53.38;100145.81;5011828;28;20171;-77
2023/06/08 01:45:29;;;;;;;17.35;6.80;;;;;;;16.62;54.02;100145.34;5012120;28;20588;-77
2023/06/08 01:48:03;;;;;;;15.45;6.25;;;;;;;16.59;53.93;100141.09;5011778;28;20049;-77
2023/06/08 01:50:32;;;;;;;12.70;6.72;;;;;;;16.58;53.30;100138.56;5011863;28;20408;-77
2023/06/08 01:52:58;;;;;;;14.25;6.38;;;;;;;16.56;53.32;100136.00;5010390;28;20054;-77
2023/06/08 01:55:27;;;;;;;17.42;7.53;;;;;;;16.52;53.36;100127.44;5011218;28;20050;-77
2023/06/08 01:57:54;;;;;;;15.65;6.95;;;;;;;16.49;53.32;100130.31;5011345;28;20073;-78
2023/06/08 02:00:21;;;;;;;18.45;6.72;;;;;;;16.45;53.48;100126.19;5011898;28;20058;-77
2023/06/08 02:02:47;;;;;;;14.75;7.40;;;;;;;16.41;53.63;100124.78;5011471;28;20046;-79
2023/06/08 02:05:15;;;;;;;14.73;6.88;;;;;;;16.36;53.66;100122.44;5011458;28;20053;-78
2023/06/08 02:07:42;;;;;;;13.57;6.72;;;;;;;16.32;53.83;100117.47;5009920;28;20496;-78
2023/06/08 02:10:10;;;;;;;14.70;7.57;;;;;;;16.30;54.03;100122.06;5011496;28;20382;-78
2023/06/08 02:12:37;;;;;;;14.00;7.05;;;;;;;16.26;53.82;100132.91;5011443;28;20054;-77
2023/06/08 02:15:04;;;;;;;15.05;7.32;;;;;;;16.24;53.90;100126.03;5011041;28;20050;-78
2023/06/08 02:17:33;;;;;;;14.35;7.78;;;;;;;16.21;54.06;100131.56;5011436;28;20048;-78
2023/06/08 02:20:04;;;;;;;19.38;8.73;;;;;;;16.16;54.09;100121.31;5011272;28;20496;-78
2023/06/08 02:22:35;;;;;;;15.55;7.28;;;;;;;16.12;54.27;100122.50;5011506;28;20392;-78
2023/06/08 02:25:07;;;;;;;18.25;7.97;;;;;;;16.07;54.96;100117.50;5010570;28;20050;-78
2023/06/08 02:27:36;;;;;;;14.15;7.18;;;;;;;16.05;54.40;100111.47;5011327;28;20042;-78
2023/06/08 02:30:05;;;;;;;14.57;7.50;;;;;;;16.04;54.54;100109.78;5011361;28;20130;-78
2023/06/08 02:32:32;;;;;;;17.75;7.60;;;;;;;16.03;54.42;100116.03;5011348;28;20085;-78
2023/06/08 02:35:01;;;;;;;18.65;7.85;;;;;;;16.02;54.61;100112.56;5010505;28;20065;-78
2023/06/08 02:37:27;;;;;;;15.80;7.85;;;;;;;16.00;54.56;100113.63;5010733;28;20053;-78
2023/06/08 02:39:54;;;;;;;20.17;7.95;;;;;;;15.97;54.49;100111.19;5011106;28;20065;-78
2023/06/08 02:42:21;;;;;;;16.08;8.15;;;;;;;15.94;54.67;100109.63;5011236;28;20104;-78
2023/06/08 02:44:48;;;;;;;16.50;7.70;;;;;;;15.91;54.76;100107.16;5010535;28;20444;-78
2023/06/08 02:47:16;;;;;;;18.38;8.05;;;;;;;15.90;54.88;100113.44;5010757;28;20057;-78
2023/06/08 02:49:42;;;;;;;17.42;8.70;;;;;;;15.89;54.91;100120.53;5009761;28;20140;-78
2023/06/08 02:52:09;;;;;;;14.32;7.75;;;;;;;15.88;54.66;100120.66;5009548;28;20073;-78
2023/06/08 02:54:36;;;;;;;14.52;8.55;;;;;;;15.86;54.68;100117.28;5009411;28;20057;-78
2023/06/08 02:57:03;;;;;;;21.80;9.65;;;;;;;15.81;54.81;100119.44;5010681;28;20064;-78
2023/06/08 02:59:31;;;;;;;14.05;8.07;;;;;;;15.77;54.82;100116.13;5011122;28;20050;-78
2023/06/08 03:01:57;;;;;;;14.27;8.02;;;;;;;15.71;55.15;100114.78;5010777;28;20046;-78
2023/06/08 03:04:30;;;;;;;20.35;8.75;;;;;;;15.71;55.15;100125.41;5009553;28;20491;-78
2023/06/08 03:06:56;;;;;;;19.45;9.52;;;;;;;15.69;55.08;100127.31;4990797;28;20055;-78
2023/06/08 03:09:24;;;;;;;20.10;9.45;;;;;;;15.69;55.50;100124.66;5005967;28;20053;-78
2023/06/08 03:11:52;;;;;;;15.55;8.20;;;;;;;15.67;55.45;100123.94;4991124;28;20109;-78
2023/06/08 03:14:18;;;;;;;18.15;9.02;;;;;;;15.66;55.48;100126.69;4991047;28;20515;-78
2023/06/08 03:16:45;;;;;;;19.52;9.13;;;;;;;15.64;55.77;100114.38;5005496;28;20938;-78
2023/06/08 03:19:13;;;;;;;13.57;7.55;;;;;;;15.65;55.89;100117.88;5010034;28;20077;-78
2023/06/08 03:21:41;;;;;;;17.70;9.10;;;;;;;15.67;55.82;100118.63;5010873;28;20064;-78
2023/06/08 03:24:09;;;;;;;20.48;9.18;;;;;;;15.67;55.73;100112.47;5010509;28;20050;-78
2023/06/08 03:26:36;;;;;;;15.20;8.07;;;;;;;15.67;56.01;100113.31;5008873;28;20058;-78
2023/06/08 03:29:03;;;;;;;15.90;9.05;;;;;;;15.69;56.00;100106.09;5010438;28;20172;-78
2023/06/08 03:31:36;;;;;;;15.65;9.05;;;;;;;15.70;56.01;100113.06;5009274;28;20100;-78
2023/06/08 03:34:05;;;;;;;15.65;9.18;;;;;;;15.73;55.98;100109.34;5010458;28;20084;-78
2023/06/08 09:37:29;;;;;;;29.08;16.35;;;;;;;22.38;52.64;100079.78;5081705;28;20036;-94
2023/06/08 09:39:57;;;;;;;20.42;15.32;;;;;;;22.57;52.78;100080.63;5029801;28;20060;-79
2023/06/08 09:42:41;;;;;;;22.40;15.90;;;;;;;22.66;52.43;100087.72;5031548;28;20140;-79
2023/06/08 09:45:10;;;;;;;30.42;17.08;;;;;;;22.73;51.56;100078.00;5030637;28;20081;-79
2023/06/08 09:47:37;;;;;;;27.00;16.17;;;;;;;22.80;51.94;100080.88;5041584;28;20520;-79
2023/06/08 09:50:06;;;;;;;24.98;17.40;;;;;;;22.86;51.38;100084.78;5052119;28;20057;-79
2023/06/08 09:52:36;;;;;;;24.40;16.52;;;;;;;22.90;51.83;100068.22;5052120;28;20067;-79
2023/06/08 09:55:03;;;;;;;24.13;16.73;;;;;;;22.97;51.83;100067.56;5051397;28;20135;-79
2023/06/08 09:57:36;;;;;;;23.02;16.73;;;;;;;23.01;51.38;100067.09;5051435;28;20057;-80
2023/06/08 10:00:14;;;;;;;22.80;16.88;;;;;;;23.10;51.18;100077.84;5051694;28;20519;-80
2023/06/08 10:03:01;;;;;;;21.23;15.98;;;;;;;23.13;51.13;100082.88;5051733;28;20057;-79
2023/06/08 10:05:30;;;;;;;22.95;15.80;;;;;;;23.23;51.41;100070.19;5051272;28;20604;-79
2023/06/08 10:07:59;;;;;;;24.55;15.98;;;;;;;23.30;51.35;100071.19;5051195;28;20091;-80
2023/06/08 10:10:31;;;;;;;22.25;15.27;;;;;;;23.41;51.76;100063.88;5051641;28;20430;-80
2023/06/08 10:12:57;;;;;;;23.83;15.87;;;;;;;23.55;52.10;100063.22;5033660;28;20499;-79
2023/06/08 10:15:25;;;;;;;19.52;15.05;;;;;;;23.73;52.09;100064.94;5050844;28;20061;-79
2023/06/08 10:17:52;;;;;;;38.22;15.32;;;;;;;23.92;51.54;100054.88;5050846;28;20053;-79
2023/06/08 10:20:20;;;;;;;25.65;15.15;;;;;;;24.10;51.01;100056.56;5050971;28;20068;-80
2023/06/08 10:22:47;;;;;;;23.30;15.45;;;;;;;24.26;50.90;100064.59;5051576;28;20135;-79
2023/06/08 10:25:16;;;;;;;18.95;14.18;;;;;;;24.42;49.91;100069.16;5050837;28;20534;-87
2023/06/08 10:27:51;;;;;;;18.15;14.70;;;;;;;24.51;50.17;100067.25;5050923;28;20052;-80
2023/06/08 10:30:26;;;;;;;27.27;15.48;;;;;;;24.65;49.57;100065.72;5051176;28;20393;-80
2023/06/08 10:32:55;;;;;;;20.20;14.32;;;;;;;24.80;50.35;100060.47;5050984;28;20427;-79
2023/06/08 10:35:21;;;;;;;20.73;14.55;;;;;;;24.96;50.14;100061.44;5051084;28;20048;-80
2023/06/08 10:37:48;;;;;;;24.02;13.75;;;;;;;25.11;50.16;100059.69;5050691;28;20446;-80
2023/06/08 10:40:15;;;;;;;19.17;13.95;;;;;;;25.30;49.92;100062.94;5050889;28;20060;-80
2023/06/08 10:42:53;;;;;;;18.20;13.95;;;;;;;25.51;49.47;100050.69;5050663;28;20495;-80
2023/06/08 10:45:40;;;;;;;18.58;13.48;;;;;;;25.82;48.76;100055.22;5049094;28;20056;-80
2023/06/08 10:48:08;;;;;;;17.70;12.32;;;;;;;26.12;49.65;100049.06;5032841;28;20573;-80
2023/06/08 10:50:39;;;;;;;19.60;13.50;;;;;;;26.45;49.20;100043.38;5033171;28;20082;-79
2023/06/08 10:53:06;;;;;;;18.13;13.50;;;;;;;26.85;48.88;100040.41;5033123;28;20057;-80
2023/06/08 10:55:33;;;;;;;19.10;12.27;;;;;;;27.30;48.76;100034.94;5049406;28;20076;-80
2023/06/08 10:58:18;;;;;;;17.92;12.00;;;;;;;27.81;47.56;100032.31;5032719;28;20423;-80
2023/06/08 11:00:48;;;;;;;16.52;11.35;;;;;;;28.37;46.17;100025.28;5050558;28;20144;-79
2023/06/08 11:03:18;;;;;;;13.10;10.98;;;;;;;28.86;45.97;100034.25;5050815;28;20048;-80
2023/06/08 11:05:50;;;;;;;14.75;10.82;;;;;;;29.25;44.58;100033.78;5050577;28;20143;-80
2023/06/08 11:08:17;;;;;;;14.15;11.05;;;;;;;29.51;43.70;100037.59;5050378;28;20063;-80
2023/06/08 11:10:51;;;;;;;13.40;11.05;;;;;;;29.63;42.23;100021.56;5050604;28;20056;-81
2023/06/08 11:13:17;;;;;;;11.77;9.85;;;;;;;29.77;43.25;100028.69;5049519;28;20057;-80
2023/06/08 11:15:46;;;;;;;16.48;10.85;;;;;;;29.93;43.18;100032.03;5050766;28;20056;-80
2023/06/08 11:18:13;;;;;;;19.50;10.15;;;;;;;30.12;42.34;100030.38;5050444;28;20176;-80
2023/06/08 11:20:42;;;;;;;15.20;10.13;;;;;;;30.30;41.84;100024.28;5050214;28;20507;-80
2023/06/08 11:23:10;;;;;;;13.70;10.18;;;;;;;30.52;41.80;100028.63;5032820;28;20503;-80
2023/06/08 11:25:37;;;;;;;13.43;9.40;;;;;;;30.74;42.49;100029.22;5050508;28;20068;-80
2023/06/08 11:28:05;;;;;;;13.73;10.13;;;;;;;31.00;41.12;100030.16;5050218;28;20084;-80
2023/06/08 11:30:33;;;;;;;13.57;9.00;;;;;;;31.29;41.33;100022.44;5050608;28;20053;-80
2023/06/08 11:33:00;;;;;;;13.23;9.30;;;;;;;31.59;40.82;100021.03;5050009;28;20057;-81
2023/06/08 11:35:27;;;;;;;15.50;8.73;;;;;;;31.89;40.15;100020.41;5050057;28;20064;-79
2023/06/08 11:37:56;;;;;;;14.93;9.38;;;;;;;32.19;38.77;100018.88;5032172;28;20063;-80
2023/06/08 11:40:22;;;;;;;20.98;8.93;;;;;;;32.46;39.66;100015.88;5050228;28;20136;-80
2023/06/08 11:42:49;;;;;;;14.15;8.10;;;;;;;32.70;39.18;100013.31;5049772;28;20068;-80
2023/06/08 11:45:16;;;;;;;12.40;8.45;;;;;;;32.95;38.93;100012.34;5032123;28;20053;-80
2023/06/08 11:47:43;;;;;;;17.15;8.73;;;;;;;33.22;37.92;100009.28;5049972;28;20495;-79
2023/06/08 11:50:12;;;;;;;12.85;8.15;;;;;;;33.48;37.03;100001.78;5050098;28;20128;-79
2023/06/08 11:52:41;;;;;;;9.55;8.00;;;;;;;33.72;37.10;100001.81;5049857;28;20061;-79
2023/06/08 11:55:13;;;;;;;11.45;8.02;;;;;;;33.93;35.54;100006.69;5050055;28;20495;-80
2023/06/08 11:57:55;;;;;;;12.60;7.10;;;;;;;34.12;36.82;100001.13;5050187;28;20088;-80
2023/06/08 12:00:28;;;;;;;9.38;7.53;;;;;;;34.35;35.04;99991.25;5050127;28;20561;-80
2023/06/08 12:02:56;;;;;;;9.88;7.25;;;;;;;34.54;35.28;99991.91;5049856;28;20360;-79
2023/06/08 12:05:28;;;;;;;8.73;7.20;;;;;;;34.69;34.05;99987.88;5049878;28;20060;-80
2023/06/08 12:07:59;;;;;;;11.75;7.22;;;;;;;34.87;34.22;99981.34;5052669;28;20063;-80
2023/06/08 12:10:35;;;;;;;10.07;6.90;;;;;;;34.99;34.25;99977.75;5035765;28;20060;-80
2023/06/08 12:13:10;;;;;;;10.55;7.22;;;;;;;35.17;34.21;99985.75;5053560;28;20056;-80
2023/06/08 12:15:40;;;;;;;11.52;7.35;;;;;;;35.34;34.31;99980.31;5053699;28;20053;-80
2023/06/08 12:18:09;;;;;;;15.10;7.60;;;;;;;35.53;33.42;99968.28;5053665;28;20057;-80
2023/06/08 12:20:36;;;;;;;8.48;6.07;;;;;;;35.69;33.72;99969.41;5035952;28;20056;-80
2023/06/08 12:23:03;;;;;;;12.88;6.68;;;;;;;35.85;33.20;99963.06;5053360;28;20059;-80
2023/06/08 12:25:30;;;;;;;8.90;6.47;;;;;;;36.04;32.91;99957.31;5053254;28;20072;-80
2023/06/08 12:27:57;;;;;;;7.88;6.05;;;;;;;36.24;32.67;99953.19;5053276;28;20053;-80
2023/06/08 12:30:25;;;;;;;11.73;7.20;;;;;;;36.43;32.65;99952.88;5053525;28;20049;-80
2023/06/08 12:32:52;;;;;;;11.48;6.75;;;;;;;36.59;32.53;99962.13;5053360;28;20053;-80
2023/06/08 12:35:23;;;;;;;9.18;6.35;;;;;;;36.72;31.53;99952.66;5053167;28;20057;-80
2023/06/08 12:37:50;;;;;;;13.05;6.47;;;;;;;36.93;32.17;99950.97;5052926;28;20056;-80
2023/06/08 12:40:18;;;;;;;8.98;6.28;;;;;;;37.09;31.45;99953.84;5035760;28;20060;-80
2023/06/08 12:42:51;;;;;;;8.32;5.88;;;;;;;37.24;30.94;99948.53;5053239;28;20053;-80
2023/06/08 12:45:20;;;;;;;9.02;6.25;;;;;;;37.39;30.91;99941.50;5052943;28;20053;-80
2023/06/08 12:47:48;;;;;;;10.80;5.45;;;;;;;37.53;30.58;99937.19;5053004;28;20131;-80
2023/06/08 12:50:17;;;;;;;10.38;5.68;;;;;;;37.69;30.51;99934.59;5052972;28;20045;-80
2023/06/08 12:52:44;;;;;;;11.90;4.80;;;;;;;37.83;30.03;99934.97;5051836;28;20073;-80
2023/06/08 12:55:11;;;;;;;8.18;4.63;;;;;;;37.96;29.98;99925.41;5052753;28;20136;-80
2023/06/08 12:57:37;;;;;;;9.45;4.22;;;;;;;38.10;30.54;99925.75;5035080;28;20063;-80
2023/06/08 13:00:05;;;;;;;7.55;4.63;;;;;;;38.25;29.65;99924.19;5052748;28;20509;-80
2023/06/08 13:02:32;;;;;;;5.90;4.30;;;;;;;38.36;29.17;99914.03;5052755;28;20529;-80
2023/06/08 13:04:59;;;;;;;10.60;4.20;;;;;;;38.47;28.49;99923.16;5052125;28;20045;-80
2023/06/08 13:07:26;;;;;;;9.23;4.57;;;;;;;38.56;28.30;99922.34;5052071;28;20049;-80
2023/06/08 13:09:53;;;;;;;5.30;4.03;;;;;;;38.63;28.22;99908.38;5052862;28;20045;-80
2023/06/08 13:12:20;;;;;;;5.97;3.45;;;;;;;38.68;27.82;99908.38;5035046;28;20057;-80
2023/06/08 13:14:46;;;;;;;7.15;4.32;;;;;;;38.75;28.29;99910.84;5052341;28;20049;-81
2023/06/08 13:17:14;;;;;;;5.97;4.15;;;;;;;38.85;28.52;99907.28;5052453;28;20056;-80
2023/06/08 13:19:43;;;;;;;6.63;3.95;;;;;;;38.98;28.11;99903.19;5051865;28;20049;-80
2023/06/08 13:22:09;;;;;;;7.03;3.80;;;;;;;39.15;26.71;99902.91;5052411;28;20404;-81
2023/06/08 13:24:36;;;;;;;5.60;3.42;;;;;;;39.27;26.60;99901.81;5052274;28;20423;-80
2023/06/08 13:27:03;;;;;;;5.05;3.70;;;;;;;39.33;27.63;99896.03;5051962;28;20049;-81
2023/06/08 13:29:29;;;;;;;4.72;3.00;;;;;;;39.38;26.77;99906.19;5052509;28;20057;-79
2023/06/08 13:31:56;;;;;;;4.72;3.45;;;;;;;39.46;26.16;99902.06;5053059;28;20052;-81
2023/06/08 13:34:22;;;;;;;6.18;3.83;;;;;;;39.54;25.49;99895.19;5052595;28;20067;-80
2023/06/08 13:36:50;;;;;;;4.65;3.30;;;;;;;39.63;25.79;99896.25;5034224;28;20061;-80
2023/06/08 13:39:17;;;;;;;7.13;4.07;;;;;;;39.71;25.27;99887.44;5052015;28;20144;-81
2023/06/08 13:41:43;;;;;;;5.45;3.75;;;;;;;39.80;25.03;99890.41;5052208;28;20124;-80
2023/06/08 13:44:10;;;;;;;5.53;3.10;;;;;;;39.85;24.55;99884.91;5052210;28;20063;-81
2023/06/08 13:46:36;;;;;;;6.20;3.63;;;;;;;39.88;24.96;99884.31;5051081;28;20059;-81
2023/06/08 13:49:03;;;;;;;4.70;3.28;;;;;;;39.88;24.44;99873.31;5052239;28;20049;-80
2023/06/08 13:51:30;;;;;;;6.00;3.55;;;;;;;39.92;24.33;99870.00;5052044;28;20056;-80
2023/06/08 13:53:56;;;;;;;4.68;3.13;;;;;;;39.91;24.07;99868.34;5034163;28;20057;-80
2023/06/08 13:56:23;;;;;;;5.63;3.50;;;;;;;39.85;24.00;99871.13;5051106;28;20048;-80
2023/06/08 13:58:59;;;;;;;4.50;3.55;;;;;;;39.77;24.69;99862.59;5051503;28;20049;-80
2023/06/08 14:01:27;;;;;;;5.53;3.78;;;;;;;39.81;24.90;99859.03;5051183;28;20067;-80
2023/06/08 14:03:55;;;;;;;6.80;3.72;;;;;;;39.85;24.46;99864.78;5051849;28;20048;-80
2023/06/08 14:06:22;;;;;;;8.25;3.78;;;;;;;39.89;24.63;99857.59;5034045;28;20067;-79
2023/06/08 14:08:49;;;;;;;7.50;3.60;;;;;;;39.94;23.94;99854.81;5049974;28;20053;-79
2023/06/08 14:11:15;;;;;;;4.80;3.20;;;;;;;40.00;24.09;99855.66;5050991;28;20061;-79
2023/06/08 14:13:42;;;;;;;3.45;2.85;;;;;;;40.05;24.23;99850.09;5050266;28;20526;-79
2023/06/08 14:16:09;;;;;;;4.45;3.50;;;;;;;40.12;23.56;99847.88;5050769;28;20056;-80
2023/06/08 14:18:35;;;;;;;5.43;3.30;;;;;;;40.18;23.64;99840.41;5050595;28;20057;-79
2023/06/08 14:21:02;;;;;;;4.80;3.15;;;;;;;40.22;23.45;99843.41;5050790;28;20364;-80
2023/06/08 14:23:28;;;;;;;8.05;3.63;;;;;;;40.26;23.81;99836.22;5050680;28;20057;-79
2023/06/08 14:25:55;;;;;;;7.53;3.80;;;;;;;40.30;23.47;99837.28;5050265;28;20057;-79
2023/06/08 14:28:21;;;;;;;8.88;3.53;;;;;;;40.32;24.10;99835.06;5050554;28;20053;-80
2023/06/08 14:30:48;;;;;;;5.90;3.67;;;;;;;40.32;23.52;99834.25;5033393;28;20057;-80
2023/06/08 14:33:14;;;;;;;4.60;3.30;;;;;;;40.31;23.23;99824.31;5051130;28;20289;-81
2023/06/08 14:35:41;;;;;;;6.18;3.58;;;;;;;40.25;23.38;99827.09;5050754;28;20049;-79
2023/06/08 14:38:11;;;;;;;8.35;3.70;;;;;;;40.20;23.29;99829.06;5050470;28;20132;-80
2023/06/08 14:40:38;;;;;;;6.45;3.67;;;;;;;40.17;23.38;99824.16;5050933;28;20055;-79
2023/06/08 14:43:05;;;;;;;4.55;3.35;;;;;;;40.15;23.48;99820.81;5050777;28;20053;-80
2023/06/08 14:45:32;;;;;;;5.90;3.45;;;;;;;40.17;23.48;99821.38;5050103;28;20056;-79
2023/06/08 14:48:02;;;;;;;5.22;3.75;;;;;;;40.19;23.49;99810.88;5032102;28;20465;-80
2023/06/08 14:50:28;;;;;;;4.80;3.50;;;;;;;40.20;23.45;99812.53;5049262;28;20061;-79
2023/06/08 14:52:55;;;;;;;5.10;3.30;;;;;;;40.20;23.47;99810.59;5049493;28;20052;-84
2023/06/08 14:55:21;;;;;;;7.70;3.40;;;;;;;40.21;24.37;99811.44;5048765;28;20535;-86
2023/06/08 14:57:48;;;;;;;5.15;3.47;;;;;;;40.25;23.52;99805.03;5049189;28;20145;-80
2023/06/08 15:00:16;;;;;;;4.38;3.63;;;;;;;40.31;23.51;99805.84;5048864;28;20062;-80
2023/06/08 15:02:42;;;;;;;5.68;3.25;;;;;;;40.35;22.60;99800.56;5050931;28;20487;-80
2023/06/08 15:05:09;;;;;;;3.75;3.40;;;;;;;40.32;22.25;99795.66;5032824;28;20057;-80
2023/06/08 15:07:36;;;;;;;3.60;3.30;;;;;;;40.25;22.31;99795.97;5050479;28;20057;-80
2023/06/08 15:10:03;;;;;;;4.10;3.15;;;;;;;40.19;22.61;99791.59;5050111;28;20049;-80
2023/06/08 15:12:30;;;;;;;5.72;3.70;;;;;;;40.11;22.96;99791.09;5050886;28;20147;-80
2023/06/08 15:14:57;;;;;;;7.10;3.60;;;;;;;40.08;22.40;99790.81;5050544;28;20053;-80
2023/06/08 15:17:23;;;;;;;4.53;3.38;;;;;;;40.05;23.18;99786.72;5050278;28;20060;-80
2023/06/08 15:19:50;;;;;;;3.42;3.13;;;;;;;40.04;22.47;99789.75;5050577;28;20080;-80
2023/06/08 15:22:16;;;;;;;5.10;3.63;;;;;;;40.02;22.36;99779.00;5050152;28;20067;-80
2023/06/08 15:24:43;;;;;;;5.05;3.35;;;;;;;39.99;22.45;99787.88;5050623;28;20503;-80
2023/06/08 15:27:09;;;;;;;22.85;4.13;;;;;;;39.95;22.67;99787.56;5050354;28;20136;-80
2023/06/08 15:29:36;;;;;;;11.93;3.60;;;;;;;39.92;22.53;99779.88;5050634;28;20056;-80
2023/06/08 15:32:02;;;;;;;10.57;3.88;;;;;;;39.88;22.29;99776.03;5050208;28;20053;-80
2023/06/08 15:34:29;;;;;;;5.55;3.50;;;;;;;39.85;23.52;99776.59;5050473;28;20057;-80
2023/06/08 15:36:55;;;;;;;4.07;3.35;;;;;;;39.83;22.17;99781.56;5049861;28;20061;-80
2023/06/08 15:39:22;;;;;;;5.00;3.03;;;;;;;39.80;22.43;99777.44;5128125;22;20053;-79
2023/06/08 15:41:48;;;;;;;3.60;3.00;;;;;;;39.74;21.80;99779.44;5047543;28;20049;-79
2023/06/08 15:44:15;;;;;;;3.10;2.80;;;;;;;39.68;21.61;99776.97;5054618;28;20059;-79
2023/06/08 15:46:41;;;;;;;4.30;2.97;;;;;;;39.58;22.09;99778.66;5054380;28;20049;-80
2023/06/08 15:49:08;;;;;;;6.15;3.15;;;;;;;39.45;21.65;99768.22;5054531;28;20397;-80
2023/06/08 15:51:41;;;;;;;3.85;2.85;;;;;;;39.32;21.65;99769.66;5055591;28;20060;-79
2023/06/08 15:54:08;;;;;;;4.72;2.90;;;;;;;39.22;23.16;99770.50;5066800;28;20079;-79
2023/06/08 15:56:34;;;;;;;3.53;2.83;;;;;;;39.14;22.94;99769.16;5062177;28;20052;-79
2023/06/08 15:59:01;;;;;;;4.75;3.17;;;;;;;39.10;23.30;99766.13;5073479;28;20050;-78
2023/06/08 16:01:31;;;;;;;4.18;3.38;;;;;;;39.09;23.18;99763.66;5073343;28;20068;-80
2023/06/08 16:03:59;;;;;;;6.55;3.65;;;;;;;39.04;22.98;99761.72;5055073;28;20073;-79
2023/06/08 16:06:26;;;;;;;3.90;3.33;;;;;;;38.96;23.20;99763.13;5073082;28;20314;-80
2023/06/08 16:08:52;;;;;;;4.75;3.70;;;;;;;38.82;23.01;99760.09;5073945;28;20054;-79
2023/06/08 16:11:20;;;;;;;5.88;3.50;;;;;;;38.65;22.64;99756.81;5074009;28;20500;-79
2023/06/08 16:13:49;;;;;;;7.60;4.25;;;;;;;38.42;22.81;99756.25;5060248;28;20052;-79
2023/06/08 16:16:15;;;;;;;5.40;3.67;;;;;;;38.11;22.83;99751.53;5054048;28;20052;-80
2023/06/08 16:18:42;;;;;;;7.13;3.67;;;;;;;37.76;22.69;99755.84;5036242;28;20088;-78
2023/06/08 16:21:09;;;;;;;4.10;3.53;;;;;;;37.36;23.15;99756.19;5053874;28;20085;-79
2023/06/08 16:23:35;;;;;;;7.70;3.40;;;;;;;37.00;23.63;99754.03;5062853;28;20455;-80
2023/06/08 16:26:02;;;;;;;9.85;3.47;;;;;;;36.67;23.67;99755.19;5073334;28;20712;-79
2023/06/08 16:28:30;;;;;;;4.15;3.17;;;;;;;36.32;23.24;99757.34;5074017;28;20511;-80
2023/06/08 16:30:57;;;;;;;5.25;3.58;;;;;;;35.93;23.05;99756.41;5073809;28;20209;-79
2023/06/08 16:33:24;;;;;;;5.05;2.95;;;;;;;35.55;23.30;99758.94;5068795;28;20048;-79
2023/06/08 16:35:50;;;;;;;3.80;3.08;;;;;;;35.19;23.28;99752.97;5053638;28;20111;-79
2023/06/08 16:38:19;;;;;;;4.68;3.20;;;;;;;34.82;23.99;99757.06;5039527;28;20504;-79
2023/06/08 16:40:45;;;;;;;6.38;3.10;;;;;;;34.48;24.29;99746.09;5073523;28;20467;-79
2023/06/08 16:43:13;;;;;;;3.70;3.08;;;;;;;34.17;24.74;99749.94;5073059;28;20088;-79
2023/06/08 16:45:39;;;;;;;6.97;3.63;;;;;;;33.89;24.97;99751.59;5053498;28;20055;-79
2023/06/08 16:48:06;;;;;;;3.88;3.08;;;;;;;33.61;25.59;99749.66;5053365;28;20061;-79
2023/06/08 16:50:32;;;;;;;3.78;3.35;;;;;;;33.36;25.95;99746.13;5053368;28;20060;-81
2023/06/08 16:52:59;;;;;;;4.43;3.70;;;;;;;33.13;26.22;99739.63;5053139;28;20103;-81
2023/06/08 16:55:26;;;;;;;5.43;3.75;;;;;;;32.92;26.73;99743.75;5068621;28;20056;-81
2023/06/08 16:57:52;;;;;;;9.93;4.00;;;;;;;32.72;26.86;99738.63;5073155;28;20053;-79
2023/06/08 17:00:20;;;;;;;6.70;3.97;;;;;;;32.54;27.13;99734.94;5073284;28;20044;-80
2023/06/08 17:02:46;;;;;;;5.75;3.70;;;;;;;32.36;27.29;99731.19;5073137;28;20103;-81
2023/06/08 17:05:14;;;;;;;5.47;3.97;;;;;;;32.19;27.88;99733.78;5061445;28;20511;-81
2023/06/08 17:07:41;;;;;;;6.85;3.58;;;;;;;32.03;27.78;99728.97;5053162;28;20119;-79
2023/06/08 17:10:07;;;;;;;6.55;4.15;;;;;;;31.87;28.18;99727.69;5035263;28;20107;-81
2023/06/08 17:12:35;;;;;;;6.45;3.60;;;;;;;31.71;28.32;99725.38;5053030;28;20056;-79
2023/06/08 17:15:02;;;;;;;8.02;4.20;;;;;;;31.57;28.45;99723.88;5058600;28;20040;-80
2023/06/08 17:17:29;;;;;;;5.78;3.58;;;;;;;31.40;28.32;99727.19;5062590;28;20568;-81
2023/06/08 17:19:56;;;;;;;7.40;3.92;;;;;;;31.24;28.83;99727.78;5065746;28;20048;-80
2023/06/08 17:22:24;;;;;;;4.13;3.60;;;;;;;31.08;29.22;99722.72;5072974;28;20052;-80
2023/06/08 17:24:51;;;;;;;5.18;3.80;;;;;;;30.95;29.11;99717.41;5070673;28;20135;-80
2023/06/08 17:27:17;;;;;;;6.25;3.80;;;;;;;30.84;29.55;99718.13;5052688;28;20048;-79
2023/06/08 17:29:44;;;;;;;4.70;3.75;;;;;;;30.73;29.42;99712.38;5052752;28;20159;-80
2023/06/08 17:32:10;;;;;;;5.97;3.92;;;;;;;30.66;29.93;99717.00;5052670;28;20057;-80